Time;durP1;ratioP1;P1;durP2;ratioP2;P2;SDS_P1;SDS_P2;PMS_P1;PMS_P2;Temp;Humidity;BMP_temperature;BMP_pressure;BME280_temperature;BME280_humidity;BME280_pressure;Samples;Min_cycle;Max_cycle;Signal;HPM_P1;HPM_P2
2022/04/16 00:04:26;;;;;;;10.55;8.13;;;;;;;5.73;100.00;99637.25;10552884;28;20121;-82
2022/04/16 00:09:30;;;;;;;11.52;8.32;;;;;;;5.71;100.00;99637.34;10368878;28;5001794;-82
2022/04/16 00:14:35;;;;;;;11.57;8.70;;;;;;;5.65;100.00;99635.06;10538086;28;20039;-83
2022/04/16 00:19:38;;;;;;;11.15;7.50;;;;;;;5.62;100.00;99633.47;10551980;28;20052;-82
2022/04/16 00:24:43;;;;;;;9.82;7.38;;;;;;;5.61;100.00;99638.88;10538457;28;20138;-83
2022/04/16 00:29:46;;;;;;;11.40;7.55;;;;;;;5.53;100.00;99637.59;10561226;28;20706;-83
2022/04/16 00:34:50;;;;;;;9.15;6.85;;;;;;;5.48;100.00;99639.69;10543528;28;20042;-82
2022/04/16 00:39:55;;;;;;;10.70;7.90;;;;;;;5.44;100.00;99643.53;10538805;28;20471;-82
2022/04/16 00:44:58;;;;;;;12.18;9.00;;;;;;;5.40;100.00;99648.22;10541478;28;20068;-82
2022/04/16 00:50:01;;;;;;;8.10;6.22;;;;;;;5.34;100.00;99640.56;10545331;28;20063;-82
2022/04/16 00:55:08;;;;;;;8.00;5.85;;;;;;;5.33;100.00;99625.50;10535050;28;20519;-82
2022/04/16 01:00:13;;;;;;;8.23;5.70;;;;;;;5.26;100.00;99632.19;10533792;28;20048;-82
2022/04/16 01:05:19;;;;;;;9.07;5.50;;;;;;;5.20;100.00;99644.13;10542424;28;20051;-83
2022/04/16 01:10:26;;;;;;;8.90;5.53;;;;;;;5.19;100.00;99645.09;10535925;28;20040;-83
2022/04/16 01:15:29;;;;;;;9.77;6.38;;;;;;;5.13;100.00;99656.13;10534766;28;20085;-83
2022/04/16 01:20:34;;;;;;;9.75;7.28;;;;;;;5.09;100.00;99666.16;10540168;28;20088;-83
2022/04/16 01:25:39;;;;;;;7.53;6.10;;;;;;;5.02;100.00;99663.97;10536455;28;20062;-83
2022/04/16 01:30:42;;;;;;;6.70;5.30;;;;;;;4.97;100.00;99666.94;10530801;28;20093;-83
2022/04/16 01:35:45;;;;;;;6.45;5.20;;;;;;;4.91;100.00;99653.97;10546330;27;20048;-82
2022/04/16 01:40:49;;;;;;;5.50;4.70;;;;;;;4.91;100.00;99660.16;10547821;28;20527;-82
2022/04/16 01:45:55;;;;;;;7.63;4.80;;;;;;;4.89;100.00;99666.53;10550697;28;20071;-82
2022/04/16 01:51:02;;;;;;;5.13;3.85;;;;;;;4.73;100.00;99663.97;10537100;28;20115;-82
2022/04/16 01:56:06;;;;;;;5.10;3.75;;;;;;;4.75;100.00;99662.06;10538075;28;20071;-83
2022/04/16 02:01:09;;;;;;;5.32;3.97;;;;;;;4.80;100.00;99664.44;10534007;28;20048;-82
2022/04/16 02:06:12;;;;;;;5.82;4.30;;;;;;;4.78;100.00;99661.84;10540220;28;20044;-83
2022/04/16 02:11:17;;;;;;;5.65;4.22;;;;;;;4.72;100.00;99663.09;10534709;28;20484;-83
2022/04/16 02:16:20;;;;;;;4.88;4.13;;;;;;;4.72;100.00;99660.41;10540197;28;20131;-83
2022/04/16 02:21:23;;;;;;;5.63;3.72;;;;;;;4.68;100.00;99668.72;10536239;28;20070;-83
2022/04/16 02:26:28;;;;;;;3.97;3.05;;;;;;;4.62;100.00;99670.81;10541454;28;20082;-83
2022/04/16 02:31:31;;;;;;;4.68;3.10;;;;;;;4.60;100.00;99670.03;10538066;28;20127;-83
2022/04/16 02:36:34;;;;;;;4.75;3.33;;;;;;;4.58;100.00;99655.06;10539010;28;20572;-83
2022/04/16 02:41:38;;;;;;;5.18;3.65;;;;;;;4.59;100.00;99662.97;10553340;28;20065;-83
2022/04/16 02:52:02;;;;;;;3.92;3.50;;;;;;;4.60;100.00;99659.38;10560996;27;20050;-84
2022/04/16 02:57:06;;;;;;;4.00;3.60;;;;;;;4.58;100.00;99666.59;10544096;28;20046;-83
2022/04/16 03:02:11;;;;;;;5.80;3.40;;;;;;;4.40;100.00;99673.91;10541971;28;20040;-84
2022/04/16 03:07:14;;;;;;;4.32;3.60;;;;;;;4.46;100.00;99683.34;10557776;28;20055;-84
2022/04/16 03:12:19;;;;;;;6.28;3.20;;;;;;;4.43;100.00;99680.84;10541710;28;20052;-83
2022/04/16 03:17:32;;;;;;;3.55;2.30;;;;;;;4.39;100.00;99671.31;10531776;28;20123;-84
2022/04/16 03:22:36;;;;;;;4.25;2.15;;;;;;;4.39;100.00;99682.84;10528377;23;20057;-61
2022/04/16 03:27:41;;;;;;;3.33;2.20;;;;;;;4.31;100.00;99691.28;10499651;28;20157;-62
2022/04/16 03:32:48;;;;;;;4.72;1.83;;;;;;;4.26;100.00;99704.06;10496974;28;20067;-60
2022/04/16 03:37:52;;;;;;;2.60;1.55;;;;;;;4.12;100.00;99699.50;10494585;28;20094;-59
2022/04/16 03:42:58;;;;;;;3.53;1.70;;;;;;;4.10;100.00;99709.44;10493684;28;20086;-62
2022/04/16 03:48:04;;;;;;;2.30;1.50;;;;;;;4.00;100.00;99706.41;10498258;28;20143;-58
2022/04/16 03:53:08;;;;;;;3.83;1.50;;;;;;;3.95;100.00;99705.81;10497081;28;20420;-61
2022/04/16 04:03:34;;;;;;;2.42;1.55;;;;;;;3.72;100.00;99731.13;10495047;28;20115;-62
2022/04/16 04:08:37;;;;;;;2.97;1.90;;;;;;;3.55;100.00;99732.06;10496537;28;20592;-59
2022/04/16 04:13:42;;;;;;;2.85;1.60;;;;;;;3.52;100.00;99725.09;10498908;28;20048;-61
2022/04/16 04:18:45;;;;;;;3.17;1.80;;;;;;;3.39;100.00;99740.88;10494477;28;20040;-62
2022/04/16 04:23:48;;;;;;;2.65;1.70;;;;;;;3.33;100.00;99767.84;10532904;28;20044;-61
2022/04/16 04:28:54;;;;;;;3.15;1.83;;;;;;;3.15;100.00;99774.13;10536808;28;20127;-61
2022/04/16 04:33:57;;;;;;;2.78;1.75;;;;;;;3.17;100.00;99793.56;10534705;28;20060;-62
2022/04/16 04:39:00;;;;;;;2.85;1.73;;;;;;;3.03;100.00;99800.47;10537282;28;20466;-61
2022/04/16 04:44:05;;;;;;;3.28;1.70;;;;;;;2.95;100.00;99812.44;10536648;28;20393;-63
2022/04/16 04:49:09;;;;;;;4.63;1.63;;;;;;;2.89;100.00;99813.63;10535490;28;20080;-65
2022/04/16 04:54:12;;;;;;;3.15;1.80;;;;;;;2.85;100.00;99809.41;10514301;28;20048;-59
2022/04/16 04:59:16;;;;;;;3.17;1.70;;;;;;;2.73;100.00;99827.72;10531722;28;21864;-59
2022/04/16 05:04:19;;;;;;;2.72;2.00;;;;;;;2.72;100.00;99820.66;10535060;28;20036;-60
2022/04/16 05:09:22;;;;;;;3.00;1.70;;;;;;;2.65;100.00;99824.56;10532732;28;20085;-59
2022/04/16 05:14:27;;;;;;;2.03;1.55;;;;;;;2.65;100.00;99837.00;10534392;28;20044;-61
2022/04/16 05:19:30;;;;;;;3.05;1.80;;;;;;;2.56;100.00;99846.28;10532872;28;20135;-60
2022/04/16 05:24:33;;;;;;;2.50;1.50;;;;;;;2.46;100.00;99836.13;10516475;28;20056;-63
2022/04/16 05:29:56;;;;;;;2.90;1.30;;;;;;;2.39;100.00;99828.50;10531898;28;20257;-64
2022/04/16 05:34:59;;;;;;;2.13;1.40;;;;;;;2.34;100.00;99834.03;10532401;28;20085;-61
2022/04/16 05:40:03;;;;;;;1.95;1.30;;;;;;;2.21;100.00;99832.91;10535464;28;20126;-60
2022/04/16 05:45:09;;;;;;;3.85;1.30;;;;;;;2.19;100.00;99853.38;10533720;28;20450;-60
2022/04/16 05:50:12;;;;;;;1.38;1.10;;;;;;;2.10;100.00;99841.41;10532973;28;20124;-61
2022/04/16 05:55:15;;;;;;;1.55;1.10;;;;;;;2.08;100.00;99846.78;10533092;28;20122;-59
2022/04/16 06:00:20;;;;;;;2.75;1.30;;;;;;;2.00;100.00;99849.78;10535708;28;20050;-58
2022/04/16 06:05:23;;;;;;;2.08;1.10;;;;;;;2.01;100.00;99853.31;10529033;28;20116;-61
2022/04/16 06:10:27;;;;;;;1.67;1.20;;;;;;;2.06;100.00;99867.25;10516500;28;20169;-60
2022/04/16 06:15:31;;;;;;;2.15;1.30;;;;;;;2.04;100.00;99876.25;10533095;28;20059;-60
2022/04/16 06:20:34;;;;;;;3.28;1.10;;;;;;;2.02;100.00;99878.09;10530115;28;20048;-61
2022/04/16 06:25:37;;;;;;;2.40;1.20;;;;;;;2.01;100.00;99890.53;10531160;28;20044;-61
2022/04/16 06:30:42;;;;;;;2.15;1.20;;;;;;;1.99;100.00;99892.41;10523872;28;20066;-60
2022/04/16 06:35:45;;;;;;;3.00;1.38;;;;;;;1.96;100.00;99896.06;10531282;28;20475;-62
2022/04/16 06:40:48;;;;;;;1.88;1.10;;;;;;;1.99;100.00;99895.06;10529733;28;20540;-59
2022/04/16 06:45:53;;;;;;;2.00;1.17;;;;;;;2.06;100.00;99906.28;10533428;28;20118;-61
2022/04/16 06:51:08;;;;;;;2.97;1.17;;;;;;;2.12;100.00;99905.97;10542735;28;20403;-62
2022/04/16 06:57:05;;;;;;;4.00;1.30;;;;;;;2.18;100.00;99920.78;10601129;28;20040;-61
2022/04/16 07:02:11;;;;;;;3.78;1.48;;;;;;;2.22;100.00;99925.94;10586889;28;20066;-62
2022/04/16 07:07:14;;;;;;;2.92;1.50;;;;;;;2.29;100.00;99934.50;10548524;28;20047;-62
2022/04/16 07:12:19;;;;;;;1.92;1.35;;;;;;;2.43;100.00;99932.03;10528380;28;20042;-61
2022/04/16 07:17:23;;;;;;;3.65;1.33;;;;;;;2.62;100.00;99929.34;10528797;28;20048;-63
2022/04/16 07:22:26;;;;;;;2.55;1.20;;;;;;;2.72;100.00;99927.13;10528464;28;20093;-61
2022/04/16 07:27:30;;;;;;;2.55;1.33;;;;;;;2.69;100.00;99927.25;10531889;28;20046;-59
2022/04/16 07:32:34;;;;;;;1.80;1.10;;;;;;;2.72;100.00;99935.09;10535433;28;20062;-58
2022/04/16 07:37:37;;;;;;;2.10;1.35;;;;;;;2.79;100.00;99927.69;10537169;28;20395;-59
2022/04/16 07:42:40;;;;;;;1.65;1.30;;;;;;;2.89;100.00;99934.28;10525828;28;20054;-63
2022/04/16 07:47:45;;;;;;;2.05;1.33;;;;;;;2.97;100.00;99936.56;10535180;28;20040;-61
2022/04/16 07:52:48;;;;;;;1.83;1.08;;;;;;;3.05;100.00;99939.72;10532796;28;20150;-59
2022/04/16 07:57:52;;;;;;;1.80;1.30;;;;;;;3.19;100.00;99948.81;10537068;28;20492;-60
2022/04/16 08:02:59;;;;;;;2.35;1.23;;;;;;;3.33;100.00;99949.00;10539515;28;20143;-60
2022/04/16 08:08:02;;;;;;;2.53;1.30;;;;;;;3.38;100.00;99954.94;10527845;28;20044;-62
2022/04/16 08:13:07;;;;;;;2.70;1.05;;;;;;;3.62;100.00;99957.28;10538130;28;20085;-61
2022/04/16 08:18:12;;;;;;;1.40;1.00;;;;;;;3.97;100.00;99954.59;10537479;28;20122;-60
2022/04/16 08:23:15;;;;;;;1.63;1.10;;;;;;;4.11;100.00;99961.88;10537395;28;20066;-61
2022/04/16 08:28:18;;;;;;;3.38;1.20;;;;;;;4.13;100.00;99959.97;10537955;28;20122;-58
2022/04/16 08:33:23;;;;;;;1.48;1.00;;;;;;;4.22;100.00;99974.63;10537855;28;20040;-60
2022/04/16 08:38:26;;;;;;;1.95;1.05;;;;;;;4.52;100.00;99970.38;10538538;28;20140;-62
2022/04/16 08:43:30;;;;;;;2.60;1.17;;;;;;;4.66;100.00;99980.28;10537421;28;20123;-61
2022/04/16 08:48:54;;;;;;;1.65;0.93;;;;;;;4.65;100.00;99983.88;10537341;28;20244;-63
2022/04/16 08:54:09;;;;;;;4.15;1.00;;;;;;;4.52;100.00;99978.38;10530913;28;20050;-62
2022/04/16 08:59:12;;;;;;;1.80;1.10;;;;;;;4.66;100.00;99980.28;10529610;28;20445;-61
2022/04/16 09:04:22;;;;;;;1.60;0.90;;;;;;;4.76;100.00;99990.38;10522797;28;20053;-61
2022/04/16 09:09:26;;;;;;;2.50;1.30;;;;;;;4.78;100.00;99987.59;10490450;28;20083;-61
2022/04/16 09:14:36;;;;;;;1.30;1.00;;;;;;;4.42;100.00;99996.69;10489070;28;20354;-61
2022/04/16 09:19:40;;;;;;;3.30;1.30;;;;;;;4.82;100.00;99994.50;10489240;28;20056;-62
2022/04/16 09:24:47;;;;;;;1.33;1.10;;;;;;;4.68;100.00;100003.31;10490728;28;20044;-60
2022/04/16 09:29:50;;;;;;;1.15;0.93;;;;;;;4.62;100.00;99998.28;10491111;28;20455;-60
2022/04/16 09:34:54;;;;;;;1.58;1.10;;;;;;;4.61;100.00;100002.78;10491034;28;20040;-64
2022/04/16 09:39:57;;;;;;;1.30;0.85;;;;;;;4.87;100.00;99996.94;10489717;28;20052;-58
2022/04/16 09:45:02;;;;;;;1.90;0.98;;;;;;;4.92;100.00;100001.06;10488702;28;20060;-60
2022/04/16 09:50:08;;;;;;;1.73;1.10;;;;;;;4.98;100.00;100007.03;10490084;28;20081;-62
2022/04/16 09:55:11;;;;;;;1.90;1.10;;;;;;;5.31;100.00;99998.03;10485133;28;20527;-58
2022/04/16 10:00:15;;;;;;;1.42;1.20;;;;;;;5.47;100.00;100003.34;10488985;28;20138;-63
2022/04/16 10:05:21;;;;;;;1.90;1.13;;;;;;;5.65;100.00;99998.72;10485685;28;20044;-61
2022/04/16 10:10:30;;;;;;;1.30;1.20;;;;;;;5.62;100.00;99993.53;10485946;28;20420;-59
2022/04/16 10:15:44;;;;;;;2.65;1.00;;;;;;;5.81;100.00;99998.66;10483912;28;20075;-62
2022/04/16 10:20:52;;;;;;;1.70;0.98;;;;;;;5.76;100.00;100000.78;10487041;28;20049;-61
2022/04/16 10:26:04;;;;;;;2.60;1.02;;;;;;;5.69;100.00;100005.63;10487766;28;20047;-60
2022/04/16 10:31:18;;;;;;;1.90;1.25;;;;;;;5.78;100.00;99999.72;10488766;28;20058;-61
2022/04/16 10:36:27;;;;;;;1.50;1.00;;;;;;;5.91;100.00;100001.66;10485907;28;20053;-60
2022/04/16 10:41:30;;;;;;;1.67;0.90;;;;;;;6.10;100.00;100004.97;10483043;28;20493;-62
2022/04/16 10:46:47;;;;;;;1.83;1.02;;;;;;;6.08;100.00;99996.16;10485228;28;20126;-62
2022/04/16 10:51:55;;;;;;;1.42;1.00;;;;;;;6.17;100.00;100008.97;10486112;28;20098;-56
2022/04/16 10:56:58;;;;;;;1.58;0.90;;;;;;;6.41;100.00;100012.91;10484165;28;20082;-62
2022/04/16 11:02:02;;;;;;;1.42;0.95;;;;;;;6.50;100.00;100011.50;10486178;28;20171;-62
2022/04/16 11:07:10;;;;;;;1.50;0.85;;;;;;;6.62;100.00;100016.09;10491387;28;20106;-63
2022/04/16 11:12:14;;;;;;;1.63;0.95;;;;;;;6.83;100.00;100005.81;10490658;28;20505;-60
2022/04/16 11:17:19;;;;;;;0.95;0.70;;;;;;;6.76;100.00;100016.03;10492539;28;20056;-60
2022/04/16 11:22:23;;;;;;;1.60;0.85;;;;;;;6.60;100.00;100010.81;10494911;28;20114;-63
2022/04/16 11:38:10;;;;;;;1.30;0.90;;;;;;;7.09;100.00;100016.66;10494786;28;20115;-63
2022/04/16 11:43:13;;;;;;;2.10;0.90;;;;;;;7.30;100.00;100011.72;10492776;28;20044;-63
2022/04/16 11:48:17;;;;;;;1.35;0.80;;;;;;;7.08;100.00;100012.25;10492921;28;20773;-63
2022/04/16 11:53:21;;;;;;;1.38;0.80;;;;;;;6.93;100.00;100019.47;10494077;28;20063;-64
2022/04/16 11:58:34;;;;;;;1.00;0.70;;;;;;;7.22;100.00;100016.75;10494570;28;20045;-64
2022/04/16 12:03:38;;;;;;;0.90;0.60;;;;;;;7.46;100.00;100010.72;10493487;28;20039;-65
2022/04/16 12:08:43;;;;;;;0.85;0.70;;;;;;;7.66;100.00;100007.56;10493878;28;21072;-62
2022/04/16 12:13:51;;;;;;;1.80;0.70;;;;;;;7.90;100.00;100003.28;10493661;28;20079;-62
2022/04/16 12:18:54;;;;;;;2.13;0.75;;;;;;;8.05;100.00;100001.41;10490631;28;20050;-61
2022/04/16 12:24:06;;;;;;;1.77;0.70;;;;;;;8.17;91.35;100000.56;10490945;28;20122;-62
2022/04/16 12:29:10;;;;;;;2.13;0.80;;;;;;;8.01;100.00;100011.47;10496326;28;20052;-66
2022/04/16 12:34:13;;;;;;;1.38;0.80;;;;;;;7.94;100.00;100008.34;10492542;28;20507;-62
2022/04/16 12:39:17;;;;;;;1.05;0.80;;;;;;;8.37;100.00;100000.97;10493304;28;20079;-64
2022/04/16 12:44:21;;;;;;;1.02;0.60;;;;;;;8.72;99.46;99994.94;10491847;28;20613;-65
2022/04/16 12:49:24;;;;;;;1.00;0.70;;;;;;;8.90;100.00;99976.63;10498657;28;20201;-64
2022/04/16 12:54:28;;;;;;;1.05;0.55;;;;;;;9.09;80.85;99982.34;10489187;28;20074;-61
2022/04/16 12:59:31;;;;;;;0.85;0.60;;;;;;;9.35;91.30;99976.88;10488324;28;20138;-62
2022/04/16 13:04:34;;;;;;;0.93;0.75;;;;;;;9.60;77.53;99979.53;10489434;28;20040;-59
2022/04/16 13:09:39;;;;;;;1.17;0.60;;;;;;;9.83;70.94;99981.31;10491288;28;20501;-60
2022/04/16 13:14:43;;;;;;;0.65;0.50;;;;;;;10.11;76.14;99972.97;10490693;28;20040;-59
2022/04/16 13:19:46;;;;;;;1.23;0.70;;;;;;;9.76;78.31;99960.41;10490562;28;20580;-64
2022/04/16 13:24:51;;;;;;;1.40;0.60;;;;;;;10.04;67.90;99972.59;10491751;28;20119;-62
2022/04/16 13:29:54;;;;;;;0.90;0.60;;;;;;;9.77;60.89;99973.72;10491363;28;20048;-61
2022/04/16 13:35:00;;;;;;;0.65;0.60;;;;;;;9.90;66.83;99975.47;10487736;28;20040;-63
2022/04/16 13:45:26;;;;;;;0.63;0.55;;;;;;;10.58;59.32;99956.72;10489707;28;20133;-63
2022/04/16 13:50:30;;;;;;;0.98;0.55;;;;;;;10.79;59.95;99940.66;10489139;28;20253;-61
2022/04/16 13:55:35;;;;;;;0.40;0.40;;;;;;;11.07;60.88;99931.13;10488730;28;20522;-63
2022/04/16 14:00:42;;;;;;;0.60;0.50;;;;;;;11.40;58.04;99923.06;10489558;28;20085;-63
2022/04/16 14:05:46;;;;;;;0.57;0.50;;;;;;;11.33;56.94;99932.63;10488433;28;20041;-62
2022/04/16 14:10:51;;;;;;;0.93;0.60;;;;;;;11.56;57.37;99933.41;10489087;28;20497;-62
2022/04/16 14:15:54;;;;;;;0.52;0.50;;;;;;;11.68;56.41;99921.56;10488439;28;20118;-62
2022/04/16 14:20:58;;;;;;;0.60;0.50;;;;;;;11.84;56.83;99921.09;10489290;28;20128;-64
2022/04/16 14:26:02;;;;;;;2.47;0.68;;;;;;;12.20;57.71;99931.53;10489327;28;20044;-64
2022/04/16 14:31:05;;;;;;;1.10;0.50;;;;;;;12.33;55.08;99932.19;10487802;28;20047;-61
2022/04/16 14:36:09;;;;;;;0.70;0.40;;;;;;;12.51;53.17;99928.84;10497312;28;20076;-59
2022/04/16 14:41:14;;;;;;;0.60;0.50;;;;;;;12.62;50.91;99917.94;10501820;28;20058;-62
2022/04/16 14:46:17;;;;;;;0.60;0.40;;;;;;;12.89;54.43;99913.69;10493726;28;20082;-60
2022/04/16 14:51:20;;;;;;;0.65;0.45;;;;;;;13.20;52.78;99916.31;10494935;28;20052;-61
2022/04/16 14:56:24;;;;;;;0.82;0.43;;;;;;;13.43;51.70;99910.66;10501616;28;20143;-63
2022/04/16 15:01:27;;;;;;;0.60;0.50;;;;;;;13.51;52.42;99904.53;10496981;28;20059;-63
2022/04/16 15:06:31;;;;;;;1.10;0.55;;;;;;;13.97;53.25;99907.44;10496524;28;20064;-62
2022/04/16 15:11:35;;;;;;;0.98;0.50;;;;;;;14.10;51.66;99897.13;10497237;28;20053;-60
2022/04/16 15:16:39;;;;;;;1.95;0.60;;;;;;;14.30;51.75;99891.63;10495619;28;20145;-62
2022/04/16 15:21:41;;;;;;;1.50;0.70;;;;;;;14.30;49.74;99889.78;10493767;28;20511;-58
2022/04/16 15:26:46;;;;;;;0.40;0.40;;;;;;;14.23;48.67;99890.53;10501151;28;20070;-61
2022/04/16 15:31:49;;;;;;;0.85;0.52;;;;;;;14.22;50.52;99884.25;10495743;28;20059;-62
2022/04/16 15:36:52;;;;;;;0.80;0.50;;;;;;;14.34;49.91;99884.91;10495540;28;20092;-63
2022/04/16 15:41:57;;;;;;;0.57;0.45;;;;;;;14.35;48.69;99878.47;10494756;28;20170;-61
2022/04/16 15:47:00;;;;;;;0.90;0.70;;;;;;;14.32;46.91;99881.47;10495568;28;20048;-61
2022/04/16 15:52:04;;;;;;;0.70;0.50;;;;;;;14.49;47.20;99871.69;10493725;28;20063;-62
2022/04/16 15:57:27;;;;;;;0.95;0.50;;;;;;;14.67;45.38;99868.19;10496272;28;20051;-63
2022/04/16 16:02:31;;;;;;;1.75;0.60;;;;;;;14.85;50.86;99862.81;10494694;28;20486;-62
2022/04/16 16:07:38;;;;;;;1.30;0.52;;;;;;;14.70;47.71;99867.91;10495138;28;20045;-63
2022/04/16 16:12:45;;;;;;;0.73;0.50;;;;;;;14.88;48.42;99859.78;10495062;28;20403;-63
2022/04/16 16:17:49;;;;;;;1.05;0.70;;;;;;;14.52;47.22;99860.56;10494774;28;20110;-63
2022/04/16 16:22:52;;;;;;;0.45;0.40;;;;;;;14.59;47.70;99849.94;10498200;28;20154;-61
2022/04/16 16:27:57;;;;;;;0.70;0.50;;;;;;;14.57;47.83;99846.53;10498166;28;20128;-62
2022/04/16 16:33:01;;;;;;;1.13;0.40;;;;;;;14.51;46.71;99847.16;10491816;28;20123;-63
2022/04/16 16:38:05;;;;;;;1.33;0.60;;;;;;;14.52;47.89;99843.44;10493203;28;20060;-62
2022/04/16 16:43:10;;;;;;;0.73;0.47;;;;;;;14.33;46.68;99840.69;10492514;28;20048;-59
2022/04/16 16:48:13;;;;;;;0.88;0.47;;;;;;;14.23;47.91;99836.31;10495903;28;20048;-63
2022/04/16 16:53:16;;;;;;;1.00;0.50;;;;;;;14.11;49.82;99835.66;10491796;28;20045;-61
2022/04/16 16:58:20;;;;;;;0.55;0.50;;;;;;;13.93;48.75;99839.13;10495229;28;20139;-63
2022/04/16 17:08:45;;;;;;;4.00;0.60;;;;;;;13.45;48.48;99829.28;10491661;28;20356;-63
2022/04/16 17:13:49;;;;;;;1.15;0.60;;;;;;;13.30;50.59;99834.25;10493581;28;20458;-62
2022/04/16 17:18:53;;;;;;;1.88;0.80;;;;;;;13.30;51.82;99826.16;10501374;28;20056;-64
2022/04/16 17:23:56;;;;;;;1.00;0.65;;;;;;;13.24;50.24;99827.56;10491667;28;20531;-62
2022/04/16 17:29:02;;;;;;;0.88;0.65;;;;;;;13.16;50.64;99831.00;10492823;28;20041;-62
2022/04/16 17:34:06;;;;;;;1.60;0.60;;;;;;;13.12;49.67;99834.97;10491815;28;20058;-62
2022/04/16 17:39:12;;;;;;;1.20;0.60;;;;;;;13.03;50.37;99830.41;10490265;28;20047;-62
2022/04/16 17:44:16;;;;;;;1.30;0.60;;;;;;;12.57;50.50;99838.22;10492182;28;20044;-62
2022/04/16 17:49:20;;;;;;;1.52;0.50;;;;;;;12.28;52.17;99836.28;10493197;28;20499;-63
2022/04/16 17:54:23;;;;;;;1.30;0.90;;;;;;;12.01;52.69;99840.44;10493257;28;20523;-63
2022/04/16 17:59:28;;;;;;;6.25;2.20;;;;;;;11.60;54.04;99843.06;10499603;28;20044;-61
2022/04/16 18:04:31;;;;;;;2.00;1.20;;;;;;;11.12;54.17;99848.97;10491275;28;20094;-63
2022/04/16 18:09:34;;;;;;;1.08;0.85;;;;;;;10.67;54.29;99850.84;10492584;28;20519;-62
2022/04/16 18:14:44;;;;;;;7.93;6.50;;;;;;;10.24;53.86;99855.16;10490432;28;20060;-62
2022/04/16 18:19:47;;;;;;;8.02;6.57;;;;;;;9.80;55.48;99857.75;10489613;28;20134;-64
2022/04/16 18:24:50;;;;;;;7.22;3.25;;;;;;;9.49;56.72;99870.91;10493096;28;20521;-64
2022/04/16 18:29:56;;;;;;;3.30;1.90;;;;;;;9.15;58.12;99878.03;10497571;28;20945;-64
2022/04/16 18:34:59;;;;;;;2.08;1.40;;;;;;;8.89;59.68;99878.16;10491831;28;20131;-64
2022/04/16 18:40:05;;;;;;;4.55;3.13;;;;;;;8.70;62.18;99876.81;10492659;28;20051;-64
2022/04/16 18:45:10;;;;;;;8.20;6.85;;;;;;;8.59;63.93;99887.47;10493734;28;20868;-63
2022/04/16 18:50:14;;;;;;;13.90;11.00;;;;;;;8.46;65.36;99885.69;10491587;28;20052;-64
2022/04/16 18:55:19;;;;;;;12.60;8.82;;;;;;;8.29;68.97;99884.19;10495808;28;20053;-64
2022/04/16 19:11:02;;;;;;;12.87;9.27;;;;;;;8.02;75.55;99895.97;10540700;28;20045;-65
2022/04/16 19:16:27;;;;;;;20.10;14.90;;;;;;;7.91;76.34;99897.66;10539254;28;20057;-63
2022/04/16 19:21:31;;;;;;;16.13;11.73;;;;;;;7.74;78.02;99891.69;10543848;28;20076;-65
2022/04/16 19:26:34;;;;;;;14.57;9.65;;;;;;;7.62;82.80;99895.22;10516975;28;20515;-63
2022/04/16 19:31:38;;;;;;;25.00;18.33;;;;;;;7.54;87.20;99896.56;10495143;28;20051;-63
2022/04/16 19:36:41;;;;;;;23.73;17.15;;;;;;;7.43;87.57;99898.28;10495604;28;20125;-60
2022/04/16 19:41:44;;;;;;;21.08;15.88;;;;;;;7.39;90.89;99903.00;10494569;28;20050;-63
2022/04/16 19:46:49;;;;;;;9.07;5.63;;;;;;;7.25;92.65;99906.59;10492543;28;20079;-62
2022/04/16 19:51:52;;;;;;;15.63;10.75;;;;;;;7.15;100.00;99905.50;10494311;28;20052;-61
2022/04/16 19:56:55;;;;;;;7.57;5.38;;;;;;;6.98;100.00;99903.94;10491381;28;20245;-61
2022/04/16 20:01:59;;;;;;;3.30;1.80;;;;;;;6.86;94.06;99895.75;10490503;28;20148;-61
2022/04/16 20:07:02;;;;;;;2.30;1.70;;;;;;;6.86;91.49;99905.63;10493323;28;20042;-62
2022/04/16 20:12:06;;;;;;;4.85;3.55;;;;;;;6.87;85.81;99897.47;10492558;28;20080;-61
2022/04/16 20:17:10;;;;;;;10.63;7.53;;;;;;;6.83;100.00;99887.06;10489914;28;20523;-61
2022/04/16 20:22:14;;;;;;;8.82;5.63;;;;;;;6.54;100.00;99897.84;10491336;28;20066;-61
2022/04/16 20:27:18;;;;;;;4.63;3.25;;;;;;;6.33;100.00;99898.28;10492626;28;20044;-61
2022/04/16 20:32:22;;;;;;;2.03;1.80;;;;;;;6.16;100.00;99891.31;10489587;28;20512;-60
2022/04/16 20:37:26;;;;;;;4.95;2.30;;;;;;;5.98;100.00;99895.97;10488693;28;20536;-60
2022/04/16 20:47:56;;;;;;;3.92;2.70;;;;;;;5.61;100.00;99892.88;10492252;28;20040;-62
2022/04/16 20:53:19;;;;;;;4.25;2.20;;;;;;;5.45;100.00;99883.16;10491584;28;20047;-62
2022/04/16 20:58:23;;;;;;;4.80;2.10;;;;;;;5.31;100.00;99889.28;10492229;28;21003;-62
2022/04/16 21:03:27;;;;;;;3.97;2.15;;;;;;;5.13;100.00;99885.91;10491003;28;20050;-61
2022/04/16 21:08:31;;;;;;;5.88;3.50;;;;;;;4.97;100.00;99890.44;10490160;28;20127;-61
2022/04/16 21:13:34;;;;;;;6.60;4.53;;;;;;;4.84;100.00;99885.81;10488022;28;20505;-60
2022/04/16 21:18:38;;;;;;;5.95;3.42;;;;;;;4.75;100.00;99895.19;10495811;28;20190;-59
2022/04/16 21:23:41;;;;;;;2.90;2.20;;;;;;;4.73;100.00;99896.25;10489630;28;20075;-61
2022/04/16 21:28:44;;;;;;;4.07;2.90;;;;;;;4.70;100.00;99888.41;10490304;28;20197;-61
2022/04/16 21:33:49;;;;;;;3.97;2.92;;;;;;;4.67;100.00;99891.22;10491009;28;20048;-62
2022/04/16 21:38:53;;;;;;;4.85;3.50;;;;;;;4.61;100.00;99889.78;10489958;28;20043;-61
2022/04/16 21:43:56;;;;;;;3.80;2.80;;;;;;;4.48;100.00;99885.13;10487070;28;20559;-62
2022/04/16 21:49:01;;;;;;;4.05;3.20;;;;;;;4.43;100.00;99889.88;10487519;28;20170;-62
2022/04/16 21:54:05;;;;;;;4.93;3.30;;;;;;;4.36;100.00;99887.63;10490095;28;20318;-61
2022/04/16 21:59:08;;;;;;;3.65;2.40;;;;;;;4.31;100.00;99895.91;10492306;28;20154;-61
2022/04/16 22:04:13;;;;;;;2.63;2.22;;;;;;;4.22;100.00;99894.59;10491105;28;20123;-61
2022/04/16 22:09:17;;;;;;;2.20;2.00;;;;;;;4.18;100.00;99895.69;10488877;28;20458;-60
2022/04/16 22:14:22;;;;;;;2.70;2.17;;;;;;;4.13;100.00;99897.78;10488883;28;20133;-61
2022/04/16 22:19:26;;;;;;;2.92;2.30;;;;;;;4.07;100.00;99898.97;10487202;28;20048;-62
2022/04/16 22:24:29;;;;;;;3.35;2.50;;;;;;;4.03;100.00;99899.22;10485829;28;20048;-61
2022/04/16 22:29:32;;;;;;;4.50;2.90;;;;;;;3.96;100.00;99898.69;10490089;28;20044;-62
2022/04/16 22:34:37;;;;;;;5.15;3.38;;;;;;;3.89;100.00;99905.28;10489079;28;20052;-62
2022/04/16 22:45:01;;;;;;;5.23;2.90;;;;;;;3.75;100.00;99896.22;10487917;28;20037;-60
2022/04/16 22:50:07;;;;;;;3.60;2.55;;;;;;;3.71;100.00;99900.00;10489298;28;20040;-61
2022/04/16 22:55:10;;;;;;;3.00;2.30;;;;;;;3.62;100.00;99905.81;10493686;28;20583;-61
2022/04/16 23:00:14;;;;;;;2.20;1.95;;;;;;;3.57;100.00;99892.72;10489502;28;20111;-62
2022/04/16 23:05:18;;;;;;;3.25;1.80;;;;;;;3.51;100.00;99899.25;10495918;28;20058;-62
2022/04/16 23:10:22;;;;;;;2.88;1.90;;;;;;;3.44;100.00;99899.63;10496751;28;20177;-59
2022/04/16 23:20:47;;;;;;;5.17;2.30;;;;;;;3.28;100.00;99889.75;10495062;28;20052;-61
2022/04/16 23:25:50;;;;;;;2.83;2.05;;;;;;;3.20;100.00;99889.28;10319237;28;5002446;-61
2022/04/16 23:30:55;;;;;;;2.95;2.20;;;;;;;3.12;100.00;99881.69;10492411;28;20201;-60
2022/04/16 23:36:00;;;;;;;3.67;2.30;;;;;;;3.05;100.00;99873.16;10494610;28;20048;-60
2022/04/16 23:41:04;;;;;;;3.10;2.10;;;;;;;2.99;100.00;99877.91;10496192;28;20390;-60
2022/04/16 23:51:30;;;;;;;2.78;2.28;;;;;;;2.84;100.00;99876.88;10496262;28;20097;-61
2022/04/16 23:56:33;;;;;;;3.25;2.40;;;;;;;2.77;100.00;99871.84;10493014;28;20052;-57
